createdAt,value
2017-09-04T00:02:21.986Z,100864.66
2017-09-04T00:04:49.374Z,100858.03
2017-09-04T00:07:16.774Z,100863.00
2017-09-04T00:09:44.150Z,100860.66
2017-09-04T00:12:11.537Z,100864.96
2017-09-04T00:14:38.922Z,100863.87
2017-09-04T00:17:06.314Z,100855.30
2017-09-04T00:19:33.698Z,100858.97
2017-09-04T00:22:01.094Z,100853.20
2017-09-04T00:24:28.485Z,100857.78
2017-09-04T00:26:55.902Z,100852.41
2017-09-04T00:29:23.290Z,100854.05
2017-09-04T00:31:50.690Z,100856.47
2017-09-04T00:34:18.074Z,100856.41
2017-09-04T00:36:45.467Z,100859.95
2017-09-04T00:39:12.860Z,100857.77
2017-09-04T00:41:40.259Z,100852.66
2017-09-04T00:44:07.685Z,100856.50
2017-09-04T00:46:35.074Z,100849.75
2017-09-04T00:49:02.473Z,100846.03
2017-09-04T00:51:29.860Z,100847.51
2017-09-04T00:53:57.246Z,100851.00
2017-09-04T00:56:24.635Z,100849.84
2017-09-04T00:58:52.035Z,100853.66
2017-09-04T01:01:19.423Z,100856.66
2017-09-04T01:03:46.814Z,100853.03
2017-09-04T01:06:14.217Z,100845.68
2017-09-04T01:08:41.619Z,100847.98
2017-09-04T01:11:09.002Z,100849.52
2017-09-04T01:13:36.394Z,100841.41
2017-09-04T01:16:03.778Z,100844.63
2017-09-04T01:18:31.266Z,100849.51
2017-09-04T01:20:58.650Z,100841.83
2017-09-04T01:23:26.037Z,100839.92
2017-09-04T01:25:53.522Z,100844.81
2017-09-04T01:28:20.915Z,100847.05
2017-09-04T01:30:48.310Z,100845.05
2017-09-04T01:33:15.701Z,100846.59
2017-09-04T01:35:43.094Z,100853.46
2017-09-04T01:38:10.490Z,100853.17
2017-09-04T01:40:37.884Z,100857.73
2017-09-04T01:43:05.273Z,100857.13
2017-09-04T01:45:32.662Z,100853.56
2017-09-04T01:48:00.051Z,100846.50
2017-09-04T01:50:27.445Z,100848.51
2017-09-04T01:52:54.834Z,100849.58
2017-09-04T01:55:22.230Z,100858.09
2017-09-04T01:57:49.614Z,100858.90
2017-09-04T02:00:17.098Z,100856.56
2017-09-04T02:02:44.482Z,100859.25
2017-09-04T02:05:11.915Z,100849.73
2017-09-04T02:07:39.298Z,100852.05
2017-09-04T02:10:06.694Z,100848.05
2017-09-04T02:12:34.092Z,100846.81
2017-09-04T02:15:01.490Z,100839.23
2017-09-04T02:17:28.875Z,100844.95
2017-09-04T02:19:56.266Z,100845.58
2017-09-04T02:22:23.655Z,100845.73
2017-09-04T02:24:51.049Z,100844.47
2017-09-04T02:27:18.438Z,100842.06
2017-09-04T02:29:45.892Z,100837.56
2017-09-04T02:32:13.254Z,100835.11
2017-09-04T02:34:40.648Z,100834.36
2017-09-04T02:37:08.126Z,100831.91
2017-09-04T02:39:35.518Z,100831.20
2017-09-04T02:42:02.910Z,100831.84
2017-09-04T02:44:30.300Z,100829.81
2017-09-04T02:46:57.779Z,100831.73
2017-09-04T02:49:25.163Z,100832.33
2017-09-04T02:51:52.567Z,100831.47
2017-09-04T02:54:20.040Z,100821.97
2017-09-04T02:56:47.430Z,100819.58
2017-09-04T02:59:14.830Z,100824.25
2017-09-04T03:01:42.294Z,100821.54
2017-09-04T03:04:09.742Z,100807.77
2017-09-04T03:06:37.194Z,100813.60
2017-09-04T03:09:04.587Z,100810.30
2017-09-04T03:11:31.972Z,100810.09
2017-09-04T03:14:01.279Z,100819.13
2017-09-04T03:16:28.666Z,100814.98
2017-09-04T03:18:56.057Z,100818.41
2017-09-04T03:21:23.442Z,100820.39
2017-09-04T03:23:50.842Z,100816.04
2017-09-04T03:26:18.226Z,100819.22
2017-09-04T03:28:45.614Z,100816.82
2017-09-04T03:31:12.998Z,100812.39
2017-09-04T03:33:40.386Z,100811.78
2017-09-04T03:36:07.776Z,100817.56
2017-09-04T03:38:35.219Z,100810.31
2017-09-04T03:41:02.618Z,100812.27
2017-09-04T03:43:30.010Z,100811.11
2017-09-04T03:45:57.400Z,100817.73
2017-09-04T03:48:24.797Z,100816.87
2017-09-04T03:50:52.179Z,100817.66
2017-09-04T03:53:19.580Z,100815.77
2017-09-04T03:55:46.969Z,100827.30
2017-09-04T03:58:14.351Z,100831.17
2017-09-04T04:00:41.738Z,100837.67
2017-09-04T04:03:09.126Z,100837.25
2017-09-04T04:05:36.519Z,100839.58
2017-09-04T04:08:03.902Z,100845.92
2017-09-04T04:10:31.375Z,100841.11
2017-09-04T04:12:58.762Z,100836.69
2017-09-04T04:15:26.160Z,100840.63
2017-09-04T04:17:53.538Z,100842.86
2017-09-04T04:20:20.929Z,100838.19
2017-09-04T04:22:48.327Z,100842.37
2017-09-04T04:25:15.713Z,100840.63
2017-09-04T04:27:43.102Z,100849.18
2017-09-04T04:30:10.500Z,100848.88
2017-09-04T04:32:37.918Z,100850.02
2017-09-04T04:35:05.318Z,100843.22
2017-09-04T04:37:32.710Z,100848.59
2017-09-04T04:40:00.143Z,100848.19
2017-09-04T04:42:27.526Z,100844.83
2017-09-04T04:44:54.923Z,100850.20
2017-09-04T04:47:22.323Z,100840.67
2017-09-04T04:49:49.776Z,100844.63
2017-09-04T04:52:17.232Z,100838.91
2017-09-04T04:54:44.623Z,100848.55
2017-09-04T04:57:12.014Z,100842.39
2017-09-04T04:59:39.503Z,100842.07
2017-09-04T05:02:06.921Z,100843.23
2017-09-04T05:04:34.310Z,100848.82
2017-09-04T05:07:01.699Z,100845.45
2017-09-04T05:09:29.086Z,100846.23
2017-09-04T05:11:56.475Z,100858.03
2017-09-04T05:14:23.870Z,100854.45
2017-09-04T05:16:51.282Z,100853.84
2017-09-04T05:19:18.667Z,100856.99
2017-09-04T05:21:46.090Z,100856.88
2017-09-04T05:24:13.482Z,100854.55
2017-09-04T05:26:40.884Z,100849.22
2017-09-04T05:29:08.285Z,100849.67
2017-09-04T05:31:35.657Z,100847.83
2017-09-04T05:34:03.044Z,100844.56
2017-09-04T05:36:30.426Z,100851.48
2017-09-04T05:38:57.818Z,100850.06
2017-09-04T05:41:25.207Z,100852.91
2017-09-04T05:43:52.692Z,100857.68
2017-09-04T05:46:20.141Z,100858.75
2017-09-04T05:48:47.534Z,100851.95
2017-09-04T05:53:48.810Z,100851.98
2017-09-04T05:56:16.194Z,100856.27
2017-09-04T05:58:43.686Z,100857.41
2017-09-04T06:01:11.071Z,100856.52
2017-09-04T06:03:38.462Z,100850.09
2017-09-04T06:06:05.846Z,100852.58
2017-09-04T06:08:33.243Z,100850.81
2017-09-04T06:11:00.630Z,100852.43
2017-09-04T06:13:28.110Z,100859.12
2017-09-04T06:15:55.499Z,100853.58
2017-09-04T06:18:22.911Z,100857.23
2017-09-04T06:20:50.300Z,100855.86
2017-09-04T06:23:17.735Z,100856.56
2017-09-04T06:25:45.123Z,100857.92
2017-09-04T06:28:12.511Z,100857.57
2017-09-04T06:30:40.004Z,100858.95
2017-09-04T06:33:07.386Z,100861.27
2017-09-04T06:35:34.848Z,100855.88
2017-09-04T06:38:02.223Z,100851.22
2017-09-04T06:40:29.726Z,100854.97
2017-09-04T06:42:57.110Z,100845.55
2017-09-04T06:45:24.502Z,100844.64
2017-09-04T06:47:51.905Z,100853.91
2017-09-04T06:50:19.298Z,100853.55
2017-09-04T06:52:46.686Z,100855.64
2017-09-04T06:55:14.074Z,100859.75
2017-09-04T06:57:41.461Z,100858.39
2017-09-04T07:00:08.867Z,100854.07
2017-09-04T07:02:36.256Z,100857.03
2017-09-04T07:05:03.652Z,100861.52
2017-09-04T07:07:31.033Z,100858.18
2017-09-04T07:09:58.427Z,100859.36
2017-09-04T07:12:25.841Z,100866.63
2017-09-04T07:14:53.234Z,100866.96
2017-09-04T07:17:20.659Z,100870.34
2017-09-04T07:19:48.054Z,100873.25
2017-09-04T07:22:15.458Z,100880.50
2017-09-04T07:24:42.866Z,100882.73
2017-09-04T07:27:10.277Z,100891.86
2017-09-04T07:29:37.674Z,100895.14
2017-09-04T07:32:05.081Z,100888.58
2017-09-04T07:34:32.563Z,100897.48
2017-09-04T07:36:59.947Z,100898.28
2017-09-04T07:39:27.366Z,100898.29
2017-09-04T07:41:54.747Z,100899.79
2017-09-04T07:44:22.162Z,100906.02
2017-09-04T07:46:49.564Z,100907.53
2017-09-04T07:49:16.985Z,100906.02
2017-09-04T07:51:44.380Z,100908.10
2017-09-04T07:54:11.758Z,100912.18
2017-09-04T07:56:39.219Z,100912.13
2017-09-04T07:59:06.620Z,100917.70
2017-09-04T08:01:34.011Z,100913.15
2017-09-04T08:04:01.409Z,100916.16
2017-09-04T08:06:28.874Z,100922.95
2017-09-04T08:08:56.262Z,100922.63
2017-09-04T08:11:23.685Z,100923.50
2017-09-04T08:13:51.142Z,100932.72
2017-09-04T08:16:18.602Z,100931.94
2017-09-04T08:18:47.948Z,100933.58
2017-09-04T08:21:15.337Z,100923.45
2017-09-04T08:23:42.814Z,100929.84
2017-09-04T08:26:10.266Z,100928.95
2017-09-04T08:28:37.706Z,100929.22
2017-09-04T08:31:05.182Z,100929.94
2017-09-04T08:33:32.566Z,100935.20
2017-09-04T08:36:00.002Z,100938.44
2017-09-04T08:38:27.392Z,100935.98
2017-09-04T08:40:54.814Z,100941.20
2017-09-04T08:43:22.271Z,100946.64
2017-09-04T08:45:49.662Z,100947.37
2017-09-04T08:48:17.083Z,100950.25
2017-09-04T08:50:44.474Z,100952.73
2017-09-04T08:53:11.861Z,100956.05
2017-09-04T08:55:39.366Z,100954.83
2017-09-04T08:58:06.732Z,100959.30
2017-09-04T09:00:34.126Z,100948.86
2017-09-04T09:03:01.510Z,100954.01
2017-09-04T09:05:28.910Z,100960.26
2017-09-04T09:07:56.370Z,100962.28
2017-09-04T09:10:23.762Z,100961.74
2017-09-04T09:12:51.146Z,100961.88
2017-09-04T09:15:18.534Z,100960.28
2017-09-04T09:17:45.925Z,100966.04
2017-09-04T09:20:13.323Z,100964.03
2017-09-04T09:22:41.609Z,100964.55
2017-09-04T09:25:09.006Z,100966.59
2017-09-04T09:27:36.394Z,100967.55
2017-09-04T09:30:03.838Z,100964.88
2017-09-04T09:32:31.224Z,100966.67
2017-09-04T09:34:58.675Z,100970.58
2017-09-04T09:37:26.058Z,100966.08
2017-09-04T09:39:53.455Z,100971.30
2017-09-04T09:42:20.847Z,100969.52
2017-09-04T09:44:48.329Z,100961.98
2017-09-04T09:47:15.801Z,100972.66
2017-09-04T09:49:43.183Z,100971.25
2017-09-04T09:52:10.582Z,100967.95
2017-09-04T09:54:37.971Z,100970.94
2017-09-04T09:57:05.359Z,100972.28
2017-09-04T09:59:32.745Z,100972.07
2017-09-04T10:02:00.135Z,100970.61
2017-09-04T10:04:27.518Z,100978.56
2017-09-04T10:06:54.915Z,100974.17
2017-09-04T10:09:22.302Z,100979.63
2017-09-04T10:11:49.691Z,100980.94
2017-09-04T10:14:17.083Z,100976.14
2017-09-04T10:16:44.470Z,100973.73
2017-09-04T10:19:11.854Z,100971.95
2017-09-04T10:21:39.246Z,100968.64
2017-09-04T10:24:06.636Z,100967.14
2017-09-04T10:26:34.022Z,100966.72
2017-09-04T10:29:01.414Z,100967.89
2017-09-04T10:31:28.818Z,100966.00
2017-09-04T10:33:56.201Z,100958.71
2017-09-04T10:36:23.595Z,100966.88
2017-09-04T10:38:50.983Z,100960.34
2017-09-04T10:41:18.366Z,100970.60
2017-09-04T10:43:45.754Z,100965.13
2017-09-04T10:46:13.154Z,100968.63
2017-09-04T10:48:40.543Z,100973.68
2017-09-04T10:51:07.950Z,100971.24
2017-09-04T10:53:35.326Z,100972.59
2017-09-04T10:56:02.714Z,100967.62
2017-09-04T10:58:30.110Z,100963.30
2017-09-04T11:00:57.502Z,100966.88
2017-09-04T11:03:24.894Z,100964.98
2017-09-04T11:05:52.278Z,100970.70
2017-09-04T11:08:19.669Z,100965.11
2017-09-04T11:10:47.063Z,100962.41
2017-09-04T11:13:14.454Z,100959.66
2017-09-04T11:15:41.834Z,100964.23
2017-09-04T11:18:09.233Z,100956.84
2017-09-04T11:20:36.621Z,100957.32
2017-09-04T11:23:04.022Z,100959.44
2017-09-04T11:25:31.399Z,100957.50
2017-09-04T11:27:58.801Z,100955.81
2017-09-04T11:30:26.190Z,100955.95
2017-09-04T11:32:53.578Z,100953.31
2017-09-04T11:35:20.970Z,100956.11
2017-09-04T11:37:48.354Z,100949.99
2017-09-04T11:40:15.738Z,100954.26
2017-09-04T11:42:43.136Z,100955.31
2017-09-04T11:45:10.523Z,100957.31
2017-09-04T11:47:37.926Z,100953.98
2017-09-04T11:50:05.318Z,100950.51
2017-09-04T11:52:32.707Z,100955.02
2017-09-04T11:55:00.106Z,100951.41
2017-09-04T11:57:27.490Z,100947.69
2017-09-04T11:59:54.919Z,100956.03
2017-09-04T12:02:22.297Z,100955.80
2017-09-04T12:04:49.695Z,100950.75
2017-09-04T12:07:17.086Z,100948.98
2017-09-04T12:09:44.476Z,100955.85
2017-09-04T12:12:11.858Z,100953.98
2017-09-04T12:14:39.255Z,100947.55
2017-09-04T12:17:06.652Z,100947.20
2017-09-04T12:19:34.042Z,100948.96
2017-09-04T12:22:03.411Z,100955.52
2017-09-04T12:24:30.806Z,100951.05
2017-09-04T12:26:58.194Z,100951.35
2017-09-04T12:29:25.598Z,100945.92
2017-09-04T12:31:52.988Z,100946.65
2017-09-04T12:34:20.375Z,100943.95
2017-09-04T12:36:47.771Z,100950.08
2017-09-04T12:39:15.159Z,100937.24
2017-09-04T12:41:42.555Z,100942.69
2017-09-04T12:44:09.968Z,100936.31
2017-09-04T12:46:37.359Z,100939.24
2017-09-04T12:49:04.746Z,100944.22
2017-09-04T12:51:32.134Z,100936.95
2017-09-04T12:53:59.527Z,100931.06
2017-09-04T12:56:26.919Z,100935.76
2017-09-04T12:58:54.436Z,100938.17
2017-09-04T13:01:21.831Z,100935.16
2017-09-04T13:03:49.328Z,100941.05
2017-09-04T13:06:16.714Z,100940.06
2017-09-04T13:08:44.102Z,100929.22
2017-09-04T13:11:28.183Z,100932.14
2017-09-04T13:14:01.128Z,100934.42
2017-09-04T13:16:34.247Z,100934.32
2017-09-04T13:22:17.280Z,100938.95
2017-09-04T13:27:58.247Z,100935.02
2017-09-04T13:30:31.382Z,100938.92
2017-09-04T13:32:59.679Z,100939.34
2017-09-04T13:35:32.592Z,100935.70
2017-09-04T13:38:05.623Z,100940.48
2017-09-04T13:40:38.584Z,100951.89
2017-09-04T13:46:15.854Z,100943.61
2017-09-04T13:48:48.926Z,100941.09
2017-09-04T13:54:33.114Z,100940.20
2017-09-04T13:57:05.415Z,100940.62
2017-09-04T13:59:38.365Z,100938.00
2017-09-04T14:05:22.578Z,100932.31
2017-09-04T14:07:55.520Z,100934.52
2017-09-04T14:13:33.408Z,100939.23
2017-09-04T14:16:20.530Z,100943.31
2017-09-04T14:18:48.003Z,100943.63
2017-09-04T14:21:15.398Z,100945.30
2017-09-04T14:23:42.781Z,100938.52
2017-09-04T14:26:10.171Z,100931.82
2017-09-04T14:28:37.558Z,100936.81
2017-09-04T14:31:04.950Z,100938.30
2017-09-04T14:33:32.337Z,100943.33
2017-09-04T14:35:59.735Z,100940.46
2017-09-04T14:38:27.119Z,100935.92
2017-09-04T14:40:55.407Z,100935.36
2017-09-04T14:43:40.617Z,100936.19
2017-09-04T14:46:13.567Z,100936.81
2017-09-04T14:48:40.959Z,100933.48
2017-09-04T14:51:08.345Z,100932.37
2017-09-04T14:53:35.727Z,100932.63
2017-09-04T14:56:03.111Z,100930.33
2017-09-04T14:58:30.506Z,100935.90
2017-09-04T15:00:57.895Z,100938.98
2017-09-04T15:03:25.294Z,100933.05
2017-09-04T15:05:52.682Z,100926.72
2017-09-04T15:08:20.074Z,100928.49
2017-09-04T15:10:47.467Z,100927.50
2017-09-04T15:13:14.851Z,100934.72
2017-09-04T15:15:42.233Z,100927.98
2017-09-04T15:18:09.634Z,100932.42
2017-09-04T15:20:37.020Z,100930.62
2017-09-04T15:23:06.318Z,100923.14
2017-09-04T15:25:33.711Z,100929.47
2017-09-04T15:28:01.098Z,100937.16
2017-09-04T15:30:28.494Z,100928.16
2017-09-04T15:32:55.887Z,100941.49
2017-09-04T15:35:23.286Z,100944.93
2017-09-04T15:37:50.674Z,100948.05
2017-09-04T15:40:18.067Z,100954.02
2017-09-04T15:42:45.460Z,100962.30
2017-09-04T15:45:12.855Z,100965.08
2017-09-04T15:47:40.260Z,100962.06
2017-09-04T15:50:07.638Z,100959.96
2017-09-04T15:52:35.023Z,100961.52
2017-09-04T15:55:02.415Z,100964.59
2017-09-04T15:57:29.798Z,100968.82
2017-09-04T15:59:57.178Z,100970.71
2017-09-04T16:02:24.571Z,100977.50
2017-09-04T16:04:51.954Z,100979.16
2017-09-04T16:07:22.774Z,100980.14
2017-09-04T16:09:50.167Z,100976.02
2017-09-04T16:12:18.907Z,100981.14
2017-09-04T16:14:48.786Z,100980.09
2017-09-04T16:20:32.998Z,100983.60
2017-09-04T16:23:01.350Z,100989.24
2017-09-04T16:25:32.217Z,100991.29
2017-09-04T16:28:03.587Z,100980.73
2017-09-04T16:30:30.974Z,100980.48
2017-09-04T16:35:59.798Z,100984.06
2017-09-04T16:38:28.539Z,100976.31
2017-09-04T16:41:07.651Z,100971.44
2017-09-04T16:43:44.939Z,100964.38
2017-09-04T16:46:16.806Z,100964.51
2017-09-04T16:48:44.734Z,100970.77
2017-09-04T16:54:35.862Z,100980.73
2017-09-04T16:57:06.598Z,100978.86
2017-09-04T16:59:33.994Z,100982.97
2017-09-04T17:02:01.383Z,100978.46
2017-09-04T17:04:28.771Z,100983.00
2017-09-04T17:06:56.158Z,100983.25
2017-09-04T17:09:23.551Z,100992.52
2017-09-04T17:11:52.868Z,100981.71
2017-09-04T17:14:20.255Z,100985.66
2017-09-04T17:16:49.550Z,100985.77
2017-09-04T17:22:27.790Z,100996.23
2017-09-04T17:25:05.086Z,101005.25
2017-09-04T17:27:32.590Z,101001.51
2017-09-04T17:29:59.982Z,100999.37
2017-09-04T17:32:27.371Z,100989.58
2017-09-04T17:34:54.761Z,100990.34
2017-09-04T17:37:22.144Z,100994.89
2017-09-04T17:39:49.532Z,100994.77
2017-09-04T17:42:16.910Z,101000.07
2017-09-04T17:44:44.307Z,100992.03
2017-09-04T17:47:11.709Z,100998.42
2017-09-04T17:49:39.115Z,101002.26
2017-09-04T17:52:06.506Z,101006.23
2017-09-04T17:54:33.886Z,101008.21
2017-09-04T17:57:01.283Z,101010.42
2017-09-04T17:59:28.695Z,101004.84
2017-09-04T18:01:56.092Z,101007.97
2017-09-04T18:04:23.481Z,101013.87
2017-09-04T18:06:50.867Z,101014.58
2017-09-04T18:09:18.246Z,101014.92
2017-09-04T18:11:45.643Z,101020.11
2017-09-04T18:14:13.062Z,101013.81
2017-09-04T18:16:40.489Z,101018.43
2017-09-04T18:19:07.895Z,101018.77
2017-09-04T18:21:35.283Z,101031.70
2017-09-04T18:24:02.681Z,101036.86
2017-09-04T18:26:30.087Z,101041.63
2017-09-04T18:28:57.470Z,101041.92
2017-09-04T18:31:24.899Z,101039.26
2017-09-04T18:33:52.269Z,101043.86
2017-09-04T18:36:19.658Z,101050.10
2017-09-04T18:38:47.068Z,101051.32
2017-09-04T18:41:14.797Z,101050.02
2017-09-04T18:43:42.198Z,101055.92
2017-09-04T18:46:09.590Z,101051.80
2017-09-04T18:48:37.109Z,101055.42
2017-09-04T18:51:04.497Z,101057.22
2017-09-04T18:53:31.880Z,101053.58
2017-09-04T18:55:59.270Z,101053.10
2017-09-04T18:58:26.659Z,101052.89
2017-09-04T19:00:54.062Z,101055.66
2017-09-04T19:03:21.467Z,101060.13
2017-09-04T19:05:48.858Z,101062.14
2017-09-04T19:08:16.250Z,101057.23
2017-09-04T19:10:43.655Z,101062.08
2017-09-04T19:13:11.039Z,101062.91
2017-09-04T19:15:38.435Z,101069.48
2017-09-04T19:18:23.678Z,101067.59
2017-09-04T19:20:51.076Z,101063.81
2017-09-04T19:23:18.461Z,101061.65
2017-09-04T19:25:45.858Z,101059.23
2017-09-04T19:28:13.246Z,101062.63
2017-09-04T19:30:40.669Z,101061.30
2017-09-04T19:33:08.058Z,101068.44
2017-09-04T19:35:35.887Z,101066.65
2017-09-04T19:38:03.311Z,101075.20
2017-09-04T19:40:30.718Z,101071.43
2017-09-04T19:42:58.128Z,101068.33
2017-09-04T19:45:25.556Z,101074.20
2017-09-04T19:47:52.955Z,101080.81
2017-09-04T19:50:20.355Z,101081.30
2017-09-04T19:52:47.773Z,101083.75
2017-09-04T19:55:15.179Z,101089.45
2017-09-04T19:57:42.567Z,101087.91
2017-09-04T20:00:09.955Z,101094.73
2017-09-04T20:02:37.355Z,101096.91
2017-09-04T20:05:04.779Z,101092.59
2017-09-04T20:07:32.170Z,101095.47
2017-09-04T20:09:59.555Z,101100.28
2017-09-04T20:12:26.946Z,101101.87
2017-09-04T20:14:54.334Z,101106.58
2017-09-04T20:17:21.728Z,101108.86
2017-09-04T20:19:49.106Z,101109.31
2017-09-04T20:22:16.504Z,101107.18
2017-09-04T20:24:43.894Z,101109.31
2017-09-04T20:27:11.286Z,101103.75
2017-09-04T20:29:38.723Z,101104.46
2017-09-04T20:32:06.119Z,101095.09
2017-09-04T20:34:33.502Z,101101.91
2017-09-04T20:37:00.910Z,101100.84
2017-09-04T20:39:28.307Z,101107.55
2017-09-04T20:41:55.707Z,101105.58
2017-09-04T20:44:23.092Z,101106.06
2017-09-04T20:46:50.574Z,101101.99
2017-09-04T20:49:17.971Z,101101.04
2017-09-04T20:51:45.362Z,101102.15
2017-09-04T20:54:12.841Z,101107.34
2017-09-04T20:56:40.228Z,101104.59
2017-09-04T20:59:07.622Z,101107.64
2017-09-04T21:01:35.106Z,101109.02
2017-09-04T21:04:02.507Z,101104.36
2017-09-04T21:06:29.908Z,101112.37
2017-09-04T21:08:57.296Z,101111.34
2017-09-04T21:11:24.733Z,101117.67
2017-09-04T21:13:52.122Z,101111.60
2017-09-04T21:16:19.569Z,101114.14
2017-09-04T21:18:46.950Z,101118.79
2017-09-04T21:21:14.335Z,101114.13
2017-09-04T21:23:42.710Z,101122.15
2017-09-04T21:26:10.096Z,101119.10
2017-09-04T21:28:37.488Z,101120.56
2017-09-04T21:31:04.871Z,101112.21
2017-09-04T21:33:32.263Z,101114.87
2017-09-04T21:35:59.674Z,101122.27
2017-09-04T21:38:27.190Z,101122.52
2017-09-04T21:40:54.592Z,101124.47
2017-09-04T21:43:21.978Z,101122.56
2017-09-04T21:45:49.434Z,101121.05
2017-09-04T21:48:16.905Z,101131.79
2017-09-04T21:50:44.291Z,101130.10
2017-09-04T21:53:11.712Z,101129.30
2017-09-04T21:55:39.165Z,101133.00
2017-09-04T21:58:06.558Z,101131.23
2017-09-04T22:00:33.961Z,101130.82
2017-09-04T22:03:01.430Z,101129.38
2017-09-04T22:05:28.883Z,101125.18
2017-09-04T22:07:56.271Z,101129.67
2017-09-04T22:10:23.664Z,101124.14
2017-09-04T22:12:51.046Z,101128.28
2017-09-04T22:15:18.438Z,101127.16
2017-09-04T22:17:45.826Z,101129.26
2017-09-04T22:20:13.235Z,101128.82
2017-09-04T22:22:40.621Z,101129.50
2017-09-04T22:25:08.014Z,101132.77
2017-09-04T22:27:35.403Z,101136.34
2017-09-04T22:30:02.791Z,101131.08
2017-09-04T22:32:30.184Z,101132.98
2017-09-04T22:34:57.566Z,101130.59
2017-09-04T22:37:24.956Z,101137.89
2017-09-04T22:39:52.343Z,101138.59
2017-09-04T22:42:19.818Z,101136.56
2017-09-04T22:44:47.198Z,101138.98
2017-09-04T22:47:14.607Z,101138.48
2017-09-04T22:49:41.991Z,101141.22
2017-09-04T22:52:09.390Z,101133.50
2017-09-04T22:54:36.781Z,101134.17
2017-09-04T22:57:04.169Z,101139.33
2017-09-04T22:59:31.558Z,101137.49
2017-09-04T23:01:58.950Z,101144.20
2017-09-04T23:04:26.338Z,101145.32
2017-09-04T23:06:53.738Z,101148.33
2017-09-04T23:09:21.125Z,101144.41
2017-09-04T23:11:48.515Z,101145.95
2017-09-04T23:14:15.939Z,101143.45
2017-09-04T23:16:43.336Z,101146.53
2017-09-04T23:19:10.718Z,101143.59
2017-09-04T23:21:38.198Z,101144.29
2017-09-04T23:24:05.590Z,101142.98
2017-09-04T23:26:33.018Z,101145.83
2017-09-04T23:29:00.405Z,101146.70
2017-09-04T23:31:27.791Z,101147.75
2017-09-04T23:33:55.177Z,101150.09
2017-09-04T23:36:22.566Z,101151.98
2017-09-04T23:38:49.959Z,101155.42
2017-09-04T23:41:17.354Z,101150.70
2017-09-04T23:43:44.741Z,101153.73
2017-09-04T23:46:12.139Z,101156.39
2017-09-04T23:48:39.543Z,101158.66
2017-09-04T23:51:06.918Z,101152.30
2017-09-04T23:53:34.323Z,101157.00
2017-09-04T23:56:01.715Z,101156.28
2017-09-04T23:58:29.131Z,101153.23
